Time;durP1;ratioP1;P1;durP2;ratioP2;P2;SDS_P1;SDS_P2;PMS_P1;PMS_P2;Temp;Humidity;BMP_temperature;BMP_pressure;BME280_temperature;BME280_humidity;BME280_pressure;Samples;Min_cycle;Max_cycle;Signal;HPM_P1;HPM_P2
2021/10/25 00:00:23;;;;;;;13.70;4.07;;;;;;;4.10;95.42;101654.06;5133586;27;20487;-77
2021/10/25 00:02:51;;;;;;;8.68;4.32;;;;;;;4.05;95.72;101648.25;5133959;27;20451;-77
2021/10/25 00:05:17;;;;;;;9.77;3.80;;;;;;;4.01;95.52;101642.28;5116130;27;20045;-77
2021/10/25 00:07:42;;;;;;;9.77;4.17;;;;;;;4.04;95.66;101656.25;5151707;27;20448;-77
2021/10/25 00:10:09;;;;;;;11.07;3.72;;;;;;;3.94;95.95;101648.06;5151995;27;20291;-77
2021/10/25 00:12:35;;;;;;;10.20;4.50;;;;;;;3.89;96.22;101644.88;5133261;27;20029;-77
2021/10/25 00:15:01;;;;;;;5.43;4.38;;;;;;;3.77;96.29;101635.94;5133005;27;20035;-77
2021/10/25 00:17:27;;;;;;;6.78;4.32;;;;;;;3.67;96.76;101637.44;5133228;27;20042;-77
2021/10/25 00:19:52;;;;;;;12.52;4.00;;;;;;;3.73;97.42;101653.75;5133125;27;20519;-75
2021/10/25 00:22:18;;;;;;;11.48;5.03;;;;;;;3.58;97.03;101639.72;5133130;27;20075;-77
2021/10/25 00:24:44;;;;;;;11.00;4.55;;;;;;;3.62;97.77;101648.28;5132409;27;20034;-77
2021/10/25 00:27:10;;;;;;;8.70;4.75;;;;;;;3.51;97.97;101648.09;5115807;27;20054;-77
2021/10/25 00:29:35;;;;;;;;;;;;;;;3.49;98.39;101650.00;5133380;27;20106;-75
2021/10/25 00:32:01;;;;;;;;;;;;;;;3.45;98.59;101653.78;5133465;27;20331;-75
2021/10/25 00:34:26;;;;;;;11.67;3.83;;;;;;;3.31;98.06;101642.25;5132726;27;19915;-75
2021/10/25 00:36:52;;;;;;;6.15;3.67;;;;;;;3.27;98.63;101651.31;5132908;27;20446;-75
2021/10/25 00:39:18;;;;;;;15.32;4.45;;;;;;;3.22;98.63;101637.53;5132988;27;20034;-75
2021/10/25 00:41:44;;;;;;;11.75;4.07;;;;;;;3.14;98.81;101640.66;5132583;27;20034;-74
2021/10/25 00:44:10;;;;;;;11.25;4.78;;;;;;;3.11;99.19;101645.25;5132497;27;20029;-75
2021/10/25 00:46:36;;;;;;;12.20;4.28;;;;;;;3.14;99.65;101645.09;5132571;27;20458;-74
2021/10/25 00:49:02;;;;;;;11.75;4.13;;;;;;;3.11;99.80;101650.53;5150990;27;20022;-74
2021/10/25 00:51:28;;;;;;;21.33;5.15;;;;;;;3.05;99.60;101645.66;5132640;27;20036;-75
2021/10/25 00:53:54;;;;;;;11.65;5.05;;;;;;;2.98;99.62;101644.31;5131563;27;20359;-74
2021/10/25 00:56:20;;;;;;;8.05;3.47;;;;;;;2.89;100.00;101645.69;5132523;27;20130;-75
2021/10/25 00:58:46;;;;;;;10.40;3.55;;;;;;;2.83;99.92;101643.41;5132436;27;20034;-75
2021/10/25 01:01:12;;;;;;;12.30;4.80;;;;;;;2.71;100.00;101631.78;5132205;27;20110;-74
2021/10/25 01:03:38;;;;;;;15.57;4.45;;;;;;;2.69;100.00;101637.19;5131945;27;20075;-74
2021/10/25 01:06:04;;;;;;;9.88;3.55;;;;;;;2.74;100.00;101642.19;5132332;27;20031;-74
2021/10/25 01:08:34;;;;;;;10.57;4.68;;;;;;;2.76;100.00;101640.28;5132228;27;20519;-75
2021/10/25 01:11:00;;;;;;;9.35;4.72;;;;;;;2.68;100.00;101640.75;5132096;27;20034;-74
2021/10/25 01:13:26;;;;;;;11.25;4.80;;;;;;;2.67;100.00;101646.09;5150398;27;20060;-74
2021/10/25 01:15:52;;;;;;;7.68;3.85;;;;;;;2.58;100.00;101631.69;5115045;27;20758;-74
2021/10/25 01:18:18;;;;;;;14.02;4.80;;;;;;;2.48;100.00;101630.50;5131969;27;20113;-75
2021/10/25 01:20:44;;;;;;;6.70;4.28;;;;;;;2.45;100.00;101636.78;5131822;27;20022;-74
2021/10/25 01:23:09;;;;;;;10.07;4.00;;;;;;;2.41;100.00;101631.78;5114713;27;20034;-74
2021/10/25 01:25:35;;;;;;;8.38;4.85;;;;;;;2.35;100.00;101632.16;5131868;27;20139;-74
2021/10/25 01:28:01;;;;;;;7.50;3.88;;;;;;;2.24;100.00;101622.22;5131991;27;20027;-74
2021/10/25 01:30:28;;;;;;;10.57;4.55;;;;;;;2.30;100.00;101627.16;5131858;27;20419;-74
2021/10/25 01:32:54;;;;;;;7.25;4.68;;;;;;;2.30;100.00;101625.34;5131962;27;20114;-74
2021/10/25 01:35:20;;;;;;;8.65;3.60;;;;;;;2.22;100.00;101619.66;5130323;27;20037;-74
2021/10/25 01:37:46;;;;;;;12.70;4.72;;;;;;;2.20;100.00;101615.41;5131099;27;20367;-74
2021/10/25 01:40:12;;;;;;;7.00;3.83;;;;;;;2.15;100.00;101613.03;5131627;27;20110;-74
2021/10/25 01:42:39;;;;;;;11.38;5.38;;;;;;;2.06;100.00;101606.53;5131484;27;20167;-75
2021/10/25 01:45:06;;;;;;;8.98;4.45;;;;;;;2.10;100.00;101618.56;5131216;27;20125;-74
2021/10/25 01:47:32;;;;;;;9.25;4.78;;;;;;;2.05;100.00;101610.06;5114240;27;20538;-74
2021/10/25 01:49:58;;;;;;;13.38;4.72;;;;;;;2.04;100.00;101616.31;5114262;27;20125;-74
2021/10/25 01:52:24;;;;;;;9.23;4.28;;;;;;;2.22;100.00;101626.72;5131228;27;20026;-74
2021/10/25 01:54:54;;;;;;;13.68;4.85;;;;;;;2.26;100.00;101622.97;5130425;27;20038;-74
2021/10/25 01:57:19;;;;;;;10.90;5.63;;;;;;;2.35;100.00;101614.56;5131215;27;20019;-74
2021/10/25 01:59:45;;;;;;;10.63;5.55;;;;;;;2.46;100.00;101624.50;5131272;27;20599;-74
2021/10/25 02:02:11;;;;;;;8.40;4.88;;;;;;;2.37;100.00;101609.19;5113934;27;20054;-74
2021/10/25 02:04:37;;;;;;;9.98;4.95;;;;;;;2.31;100.00;101597.22;5130719;27;20600;-74
2021/10/25 02:07:02;;;;;;;8.57;4.30;;;;;;;2.28;100.00;101587.69;5131200;27;20057;-74
2021/10/25 02:09:28;;;;;;;7.45;4.45;;;;;;;2.33;100.00;101600.59;5131014;27;20044;-74
2021/10/25 02:11:55;;;;;;;10.75;4.43;;;;;;;2.36;100.00;101597.78;5113922;27;20035;-77
2021/10/25 02:14:20;;;;;;;14.90;4.57;;;;;;;2.31;100.00;101586.66;5130674;27;20026;-74
2021/10/25 02:16:47;;;;;;;8.88;4.22;;;;;;;2.28;100.00;101587.69;5130701;27;20049;-75
2021/10/25 02:19:13;;;;;;;9.60;4.50;;;;;;;2.20;100.00;101578.53;5130855;27;20299;-75
2021/10/25 02:21:57;;;;;;;11.00;5.72;;;;;;;2.13;100.00;101569.28;5149153;27;20569;-75
2021/10/25 02:24:22;;;;;;;11.07;5.03;;;;;;;2.13;100.00;101572.78;5113728;27;20043;-75
2021/10/25 02:26:48;;;;;;;9.43;4.70;;;;;;;2.07;100.00;101563.44;5130805;27;20042;-75
2021/10/25 02:29:14;;;;;;;;;;;;;;;2.06;100.00;101561.75;5131396;27;20034;-75
2021/10/25 02:31:40;;;;;;;11.57;4.63;;;;;;;2.06;100.00;101561.75;5130893;27;19911;-75
2021/10/25 02:34:06;;;;;;;10.25;4.85;;;;;;;2.19;100.00;101576.84;5130527;27;20037;-74
2021/10/25 02:36:31;;;;;;;14.45;5.97;;;;;;;2.12;100.00;101560.53;5130958;27;20129;-74
2021/10/25 02:38:57;;;;;;;9.85;4.45;;;;;;;2.03;100.00;101564.53;5113790;27;20510;-74
2021/10/25 02:41:23;;;;;;;14.90;5.40;;;;;;;2.14;100.00;101577.09;5130696;27;20026;-74
2021/10/25 02:43:50;;;;;;;9.82;4.15;;;;;;;1.97;100.00;101570.16;5130214;27;20031;-74
2021/10/25 02:46:16;;;;;;;10.32;4.55;;;;;;;2.25;100.00;101584.41;5130672;27;20359;-75
2021/10/25 02:48:44;;;;;;;13.52;6.10;;;;;;;2.56;100.00;101601.91;5130418;27;20124;-74
2021/10/25 02:51:12;;;;;;;8.80;4.55;;;;;;;2.42;100.00;101580.78;5130577;27;20015;-74
2021/10/25 02:53:37;;;;;;;8.65;4.45;;;;;;;2.48;100.00;101583.91;5148756;27;20503;-75
2021/10/25 02:56:03;;;;;;;10.25;5.35;;;;;;;2.52;100.00;101588.06;5112795;27;20086;-74
2021/10/25 02:58:29;;;;;;;10.98;4.80;;;;;;;2.64;100.00;101593.53;5148648;27;20045;-75
2021/10/25 03:00:56;;;;;;;13.20;5.22;;;;;;;2.64;100.00;101583.84;5148459;27;20033;-74
2021/10/25 03:03:23;;;;;;;8.65;4.43;;;;;;;2.63;100.00;101582.16;5130176;27;20027;-75
2021/10/25 03:05:48;;;;;;;9.93;4.78;;;;;;;2.67;100.00;101569.63;5113276;27;20049;-74
2021/10/25 03:08:14;;;;;;;9.75;4.68;;;;;;;2.57;100.00;101544.75;5113294;27;20364;-75
2021/10/25 03:10:40;;;;;;;6.90;4.43;;;;;;;2.57;100.00;101550.03;5130291;27;20069;-74
2021/10/25 03:13:10;;;;;;;9.75;4.35;;;;;;;2.32;100.00;101520.72;5130312;27;20109;-75
2021/10/25 03:15:36;;;;;;;7.03;4.63;;;;;;;2.27;100.00;101514.88;5129792;27;20447;-75
2021/10/25 03:18:07;;;;;;;10.05;4.53;;;;;;;2.19;100.00;101503.91;5130460;27;20547;-75
2021/10/25 03:20:34;;;;;;;9.95;4.57;;;;;;;2.04;100.00;101505.66;5113212;27;20188;-74
2021/10/25 03:23:00;;;;;;;6.57;4.50;;;;;;;1.86;100.00;101480.38;5129985;27;20112;-74
2021/10/25 03:25:27;;;;;;;12.52;4.43;;;;;;;1.74;100.00;101467.94;5130001;27;20489;-75
2021/10/25 03:27:52;;;;;;;11.67;4.87;;;;;;;1.99;100.00;101509.47;5113172;27;20019;-74
2021/10/25 03:30:18;;;;;;;10.35;4.72;;;;;;;2.13;100.00;101527.13;5130240;27;20030;-74
2021/10/25 03:32:47;;;;;;;12.85;5.88;;;;;;;1.99;100.00;101520.03;5130239;27;20418;-74
2021/10/25 03:35:40;;;;;;;10.93;5.93;;;;;;;1.90;100.00;101524.06;5129981;27;20038;-75
2021/10/25 03:38:10;;;;;;;10.90;5.53;;;;;;;2.00;100.00;101535.75;5130007;27;20069;-75
2021/10/25 03:40:37;;;;;;;14.25;7.28;;;;;;;1.92;100.00;101532.72;5129780;27;20031;-75
2021/10/25 03:43:02;;;;;;;9.95;5.05;;;;;;;1.90;100.00;101534.59;5130021;27;20039;-74
2021/10/25 03:45:40;;;;;;;10.23;5.28;;;;;;;2.03;100.00;101547.88;5112581;27;20034;-74
2021/10/25 03:50:34;;;;;;;11.30;4.93;;;;;;;1.89;100.00;101540.78;5129847;27;20091;-75
2021/10/25 03:53:09;;;;;;;10.98;4.80;;;;;;;1.77;100.00;101525.66;5112957;27;20038;-74
2021/10/25 03:55:46;;;;;;;8.25;5.50;;;;;;;1.92;100.00;101537.97;5112089;27;20031;-75
2021/10/25 04:04:01;;;;;;;9.25;5.55;;;;;;;2.24;100.00;101566.88;5133258;27;20034;-74
2021/10/25 04:28:32;;;;;;;13.32;5.50;;;;;;;2.18;100.00;101549.66;5132989;27;20053;-74
2021/10/25 04:31:00;;;;;;;11.75;5.97;;;;;;;2.11;100.00;101543.88;5115804;27;20384;-74
2021/10/25 04:33:32;;;;;;;21.60;10.85;;;;;;;2.10;100.00;101539.53;5132634;27;20034;-74
2021/10/25 04:36:04;;;;;;;16.90;6.82;;;;;;;2.19;100.00;101550.50;5133006;27;20340;-74
2021/10/25 04:38:36;;;;;;;17.98;6.45;;;;;;;2.24;100.00;101545.81;5133094;27;20026;-75
2021/10/25 04:41:02;;;;;;;17.58;6.43;;;;;;;2.56;100.00;101556.25;5132747;27;20054;-75
2021/10/25 04:43:28;;;;;;;19.45;5.95;;;;;;;2.66;100.00;101549.47;5132443;27;20034;-74
2021/10/25 04:45:53;;;;;;;12.05;5.20;;;;;;;2.73;100.00;101533.19;5132710;27;20041;-74
2021/10/25 04:48:19;;;;;;;12.30;5.83;;;;;;;2.91;100.00;101538.31;5132455;27;20115;-74
2021/10/25 04:51:01;;;;;;;9.23;5.20;;;;;;;3.00;100.00;101534.25;5118063;27;20112;-74
2021/10/25 04:54:02;;;;;;;12.85;5.55;;;;;;;3.08;100.00;101516.16;5133240;27;20367;-74
2021/10/25 04:56:32;;;;;;;13.88;5.20;;;;;;;2.97;100.00;101490.44;5116097;27;20035;-74
2021/10/25 04:58:57;;;;;;;11.03;6.33;;;;;;;2.93;100.00;101476.59;5150826;27;20039;-74
2021/10/25 05:01:23;;;;;;;11.60;5.90;;;;;;;2.85;100.00;101460.41;5150875;27;20022;-74
2021/10/25 05:03:49;;;;;;;13.82;7.10;;;;;;;2.93;100.00;101473.97;5132106;27;20605;-75
2021/10/25 05:06:18;;;;;;;16.48;5.38;;;;;;;2.89;100.00;101461.91;5132352;27;20031;-74
2021/10/25 05:08:46;;;;;;;11.60;6.25;;;;;;;3.00;100.00;101469.16;5115745;27;20026;-75
2021/10/25 05:11:12;;;;;;;11.30;5.32;;;;;;;2.99;100.00;101471.88;5132217;27;20025;-75
2021/10/25 05:13:38;;;;;;;16.15;5.72;;;;;;;3.01;100.00;101468.22;5131827;27;20034;-74
2021/10/25 05:16:05;;;;;;;10.68;5.78;;;;;;;3.02;100.00;101471.69;5115103;27;20062;-74
2021/10/25 05:18:31;;;;;;;22.83;7.80;;;;;;;3.14;100.00;101481.50;5150345;27;20113;-74
2021/10/25 05:20:57;;;;;;;10.48;5.57;;;;;;;3.14;100.00;101470.94;5131848;27;20165;-74
2021/10/25 05:23:23;;;;;;;16.40;5.75;;;;;;;3.09;100.00;101473.00;5131679;27;20390;-74
2021/10/25 05:25:50;;;;;;;11.67;5.90;;;;;;;3.12;100.00;101467.53;5131986;27;20023;-74
2021/10/25 05:28:16;;;;;;;11.07;5.57;;;;;;;3.10;100.00;101469.44;5114526;27;20463;-74
2021/10/25 05:30:42;;;;;;;12.10;6.10;;;;;;;3.08;100.00;101460.75;5131701;27;20491;-74
2021/10/25 05:33:13;;;;;;;14.68;6.47;;;;;;;2.99;100.00;101451.63;5115267;27;20031;-75
2021/10/25 05:35:38;;;;;;;14.10;7.55;;;;;;;2.95;100.00;101445.72;5131751;27;20045;-74
2021/10/25 05:38:05;;;;;;;12.67;7.07;;;;;;;3.09;100.00;101473.88;5149955;27;20069;-74
2021/10/25 05:40:31;;;;;;;12.75;6.93;;;;;;;3.16;100.00;101471.66;5131608;27;20085;-75
2021/10/25 05:43:01;;;;;;;21.33;6.60;;;;;;;3.17;100.00;101474.22;5114980;27;20026;-75
2021/10/25 05:45:27;;;;;;;12.05;6.10;;;;;;;3.07;100.00;101453.81;5131246;27;20514;-74
2021/10/25 05:47:53;;;;;;;13.80;7.17;;;;;;;3.05;100.00;101460.97;5114481;27;20027;-75
2021/10/25 05:50:18;;;;;;;14.27;6.88;;;;;;;3.09;100.00;101455.41;5131287;27;20315;-74
2021/10/25 05:52:44;;;;;;;15.63;6.20;;;;;;;3.13;100.00;101462.16;5131133;27;20129;-75
2021/10/25 05:55:10;;;;;;;10.70;6.60;;;;;;;3.07;100.00;101459.06;5113680;27;20022;-74
2021/10/25 05:57:37;;;;;;;12.85;6.55;;;;;;;3.13;100.00;101471.88;5131142;27;20046;-75
2021/10/25 06:00:05;;;;;;;13.10;6.17;;;;;;;3.11;100.00;101465.84;5114164;27;20160;-75
2021/10/25 06:02:42;;;;;;;14.73;6.65;;;;;;;3.07;100.00;101451.16;5132828;27;20039;-75
2021/10/25 06:05:13;;;;;;;11.82;6.70;;;;;;;3.04;100.00;101454.81;5130662;27;20066;-74
2021/10/25 06:07:43;;;;;;;15.65;7.47;;;;;;;3.08;100.00;101471.31;5131214;27;20035;-74
2021/10/25 06:10:13;;;;;;;13.13;6.07;;;;;;;3.02;100.00;101461.13;5131204;27;20088;-75
2021/10/25 06:12:48;;;;;;;14.38;7.78;;;;;;;2.98;100.00;101459.66;5130951;27;20035;-74
2021/10/25 06:15:37;;;;;;;17.42;6.78;;;;;;;2.95;100.00;101461.53;5130962;27;20037;-74
2021/10/25 06:18:05;;;;;;;14.10;7.22;;;;;;;2.94;100.00;101458.97;5130893;27;20133;-75
2021/10/25 06:20:31;;;;;;;16.83;6.80;;;;;;;2.89;100.00;101456.63;5113336;27;20082;-75
2021/10/25 06:22:58;;;;;;;13.93;6.85;;;;;;;2.87;100.00;101455.03;5112919;27;20050;-74
2021/10/25 06:25:26;;;;;;;14.68;7.50;;;;;;;2.87;100.00;101466.44;5111689;27;20026;-74
2021/10/25 06:28:11;;;;;;;12.07;6.85;;;;;;;2.85;100.00;101470.94;5114149;27;20031;-74
2021/10/25 06:30:42;;;;;;;13.90;7.88;;;;;;;2.93;100.00;101483.69;5112395;27;20034;-74
2021/10/25 06:33:12;;;;;;;14.55;7.18;;;;;;;2.94;100.00;101480.09;5128426;27;20034;-74
2021/10/25 06:36:05;;;;;;;20.00;10.35;;;;;;;3.02;100.00;101500.69;5114845;27;20038;-74
2021/10/25 06:41:15;;;;;;;25.13;8.57;;;;;;;3.02;100.00;101503.34;5130013;27;20035;-74
2021/10/25 06:43:41;;;;;;;18.63;9.70;;;;;;;3.07;100.00;101509.22;5129712;27;20031;-74
2021/10/25 06:46:13;;;;;;;12.77;7.38;;;;;;;3.19;100.00;101516.34;5130094;27;20027;-74
2021/10/25 06:48:39;;;;;;;22.40;9.95;;;;;;;3.28;100.00;101504.38;5112911;27;20035;-74
2021/10/25 06:51:04;;;;;;;23.60;11.18;;;;;;;3.25;100.00;101500.09;5130130;27;20113;-75
2021/10/25 06:53:30;;;;;;;14.95;8.25;;;;;;;3.32;100.00;101490.00;5129780;27;20475;-75
2021/10/25 06:56:08;;;;;;;24.15;12.90;;;;;;;3.50;100.00;101503.84;5129562;27;20087;-74
2021/10/25 06:58:34;;;;;;;;;;;;;;;3.78;100.00;101508.19;5113443;27;20062;-74
2021/10/25 07:01:01;;;;;;;17.55;8.77;;;;;;;4.10;100.00;101515.81;5129969;27;19941;-75
2021/10/25 07:03:28;;;;;;;22.85;8.32;;;;;;;4.35;99.77;101501.78;5130055;27;20122;-74
2021/10/25 07:05:54;;;;;;;15.02;7.20;;;;;;;4.72;99.03;101499.28;5130347;27;20428;-75
2021/10/25 07:08:20;;;;;;;15.98;7.18;;;;;;;4.78;97.18;101477.69;5130363;27;20023;-74
2021/10/25 07:10:47;;;;;;;11.30;7.10;;;;;;;5.25;96.75;101498.16;5130496;27;20099;-74
2021/10/25 07:13:13;;;;;;;12.27;6.30;;;;;;;5.48;95.45;101483.25;5130186;27;20042;-74
2021/10/25 07:15:45;;;;;;;11.93;6.97;;;;;;;5.67;94.28;101471.31;5129643;27;20439;-74
2021/10/25 07:26:17;;;;;;;12.35;6.00;;;;;;;6.06;89.97;101450.75;5128981;27;20035;-74
2021/10/25 08:09:05;;;;;;;12.50;7.00;;;;;;;8.07;80.58;101440.03;5133474;27;20022;-75
2021/10/25 08:11:36;;;;;;;11.95;6.40;;;;;;;8.58;81.17;101481.00;5116598;27;20042;-76
2021/10/25 08:14:05;;;;;;;8.25;5.72;;;;;;;9.02;78.09;101439.84;5116161;27;20473;-75
2021/10/25 08:16:52;;;;;;;12.52;6.40;;;;;;;9.34;75.64;101422.84;5133712;27;20393;-76
2021/10/25 08:19:25;;;;;;;12.57;6.47;;;;;;;8.88;76.15;101392.28;5133200;27;20054;-75
2021/10/25 08:21:57;;;;;;;14.77;7.35;;;;;;;9.52;76.33;101444.31;5133479;27;20034;-76
2021/10/25 08:24:26;;;;;;;8.48;6.07;;;;;;;9.96;75.30;101460.75;5116300;27;20398;-76
2021/10/25 08:27:10;;;;;;;;;;;;;;;10.38;72.47;101436.44;5152192;27;20055;-75
2021/10/25 08:29:39;;;;;;;13.82;7.00;;;;;;;11.18;69.48;101416.25;5133350;27;19983;-76
2021/10/25 08:32:16;;;;;;;13.43;6.40;;;;;;;11.79;67.53;101408.50;5133070;27;20033;-75
2021/10/25 08:34:56;;;;;;;11.32;7.50;;;;;;;10.64;70.49;101385.88;5115931;27;20035;-76
2021/10/25 08:40:36;;;;;;;9.90;6.35;;;;;;;11.29;69.42;101407.19;5132889;27;20486;-76
2021/10/25 08:43:02;;;;;;;13.10;7.15;;;;;;;12.35;68.56;101451.94;5115965;27;20035;-76
2021/10/25 08:45:30;;;;;;;13.73;7.30;;;;;;;13.07;64.49;101409.63;5115268;27;20041;-76
2021/10/25 08:47:58;;;;;;;10.73;6.22;;;;;;;12.29;66.06;101386.50;5132949;27;20023;-76
2021/10/25 08:50:29;;;;;;;10.80;7.38;;;;;;;11.46;68.70;101369.91;5150797;27;20424;-76
2021/10/25 08:52:57;;;;;;;12.57;7.50;;;;;;;11.93;68.83;101416.00;5115861;27;20019;-76
2021/10/25 08:55:33;;;;;;;12.05;7.63;;;;;;;12.07;68.30;101401.22;5116299;27;20083;-76
2021/10/25 08:57:59;;;;;;;11.57;7.13;;;;;;;13.28;65.23;101409.19;5132583;27;20034;-76
2021/10/25 09:00:42;;;;;;;13.65;8.40;;;;;;;13.72;64.35;101414.31;5132490;27;20272;-76
2021/10/25 09:03:20;;;;;;;12.25;7.03;;;;;;;14.03;62.20;101373.34;5116640;27;20038;-76
2021/10/25 09:05:53;;;;;;;12.98;6.60;;;;;;;13.79;62.30;101350.91;5132454;27;20034;-76
2021/10/25 09:08:19;;;;;;;11.90;6.57;;;;;;;13.75;61.42;101320.03;5132164;27;20041;-76
2021/10/25 09:10:46;;;;;;;10.60;7.68;;;;;;;13.57;62.69;101330.94;5150660;27;20035;-76
2021/10/25 09:13:21;;;;;;;15.98;8.85;;;;;;;12.64;65.29;101309.63;5114381;27;20030;-76
2021/10/25 09:15:56;;;;;;;14.15;8.43;;;;;;;11.95;68.38;101343.59;5131888;27;20367;-77
2021/10/25 09:18:41;;;;;;;18.00;8.98;;;;;;;12.51;66.25;101349.44;5135380;27;20476;-77
2021/10/25 09:21:10;;;;;;;16.42;8.82;;;;;;;11.51;68.32;101300.78;5131416;27;20034;-77
2021/10/25 09:23:40;;;;;;;13.23;9.07;;;;;;;10.62;72.56;101333.63;5114698;27;20123;-77
2021/10/25 09:26:19;;;;;;;14.80;8.20;;;;;;;11.17;71.92;101360.28;5131762;27;20034;-76
2021/10/25 09:28:50;;;;;;;13.27;8.85;;;;;;;11.57;70.58;101361.66;5131861;27;20367;-77
2021/10/25 09:31:25;;;;;;;16.58;9.05;;;;;;;11.70;70.15;101366.63;5114648;27;20019;-78
2021/10/25 09:33:56;;;;;;;12.15;7.82;;;;;;;10.11;74.49;101331.28;5114617;27;20026;-78
2021/10/25 09:36:37;;;;;;;18.90;9.95;;;;;;;10.45;75.99;101388.63;5132136;27;20058;-77
2021/10/25 09:50:12;;;;;;;14.77;8.52;;;;;;;12.03;70.04;101352.53;5131403;27;20023;-77
2021/10/25 09:52:41;;;;;;;20.75;9.30;;;;;;;12.05;70.56;101365.72;5114368;27;20447;-77
2021/10/25 09:55:17;;;;;;;16.05;8.88;;;;;;;13.00;67.49;101361.16;5114583;27;20373;-78
2021/10/25 10:00:35;;;;;;;17.55;9.63;;;;;;;11.90;70.21;101321.81;5140845;27;20065;-77
2021/10/25 10:03:01;;;;;;;16.67;10.30;;;;;;;11.64;71.02;101327.97;5131262;27;20896;-78
2021/10/25 10:05:49;;;;;;;17.60;10.27;;;;;;;10.93;72.58;101304.75;5149682;27;20425;-77
2021/10/25 10:08:14;;;;;;;16.83;10.55;;;;;;;10.94;74.16;101322.47;5131079;27;20444;-77
2021/10/25 10:10:40;;;;;;;16.98;11.05;;;;;;;11.12;73.29;101334.03;5114111;27;20044;-78
2021/10/25 10:13:18;;;;;;;15.68;9.43;;;;;;;11.44;73.08;101350.50;5130982;27;20030;-78
2021/10/25 10:15:58;;;;;;;18.80;9.02;;;;;;;11.75;72.21;101343.78;5130994;27;20031;-77
2021/10/25 10:18:26;;;;;;;;;;;;;;;12.33;70.56;101352.19;5131456;27;20342;-77
2021/10/25 10:21:20;;;;;;;;;;;;;;;11.88;69.51;101292.53;5131342;27;20333;-77
2021/10/25 10:23:53;;;;;;;15.25;10.35;;;;;;;11.72;71.52;101306.59;5130635;27;19933;-78
2021/10/25 10:26:19;;;;;;;16.17;9.73;;;;;;;12.60;69.60;101343.13;5130863;27;20030;-77
2021/10/25 10:28:51;;;;;;;14.07;9.35;;;;;;;12.56;69.13;101315.81;5114473;27;20470;-78
2021/10/25 10:31:24;;;;;;;16.83;10.35;;;;;;;11.97;69.17;101264.00;5131717;27;20027;-77
2021/10/25 10:34:14;;;;;;;18.30;10.23;;;;;;;11.85;70.82;101306.22;5135111;27;20045;-77
2021/10/25 10:36:53;;;;;;;17.05;10.27;;;;;;;11.72;72.69;101344.06;5131922;27;20482;-77
2021/10/25 10:39:28;;;;;;;20.00;11.70;;;;;;;12.32;70.89;101350.53;5131716;27;20034;-76
2021/10/25 10:42:06;;;;;;;16.15;10.13;;;;;;;12.71;69.47;101353.53;5149905;27;20027;-78
2021/10/25 10:45:00;;;;;;;18.67;10.10;;;;;;;12.81;68.97;101348.88;5139921;27;20150;-77
2021/10/25 10:47:45;;;;;;;17.33;10.20;;;;;;;12.66;69.05;101326.38;5130297;27;20026;-76
2021/10/25 10:50:19;;;;;;;15.23;9.80;;;;;;;12.98;68.25;101327.50;5130294;27;20035;-76
2021/10/25 10:52:50;;;;;;;17.40;11.15;;;;;;;13.46;67.35;101329.44;5114368;27;20030;-76
2021/10/25 10:55:25;;;;;;;17.02;10.57;;;;;;;14.24;65.12;101338.72;5131182;27;20052;-77
2021/10/25 11:00:25;;;;;;;17.20;10.75;;;;;;;14.43;62.75;101283.78;5149687;27;20169;-76
2021/10/25 11:02:53;;;;;;;18.52;10.88;;;;;;;13.31;66.38;101298.91;5131619;27;20070;-76
2021/10/25 11:05:33;;;;;;;17.80;10.52;;;;;;;13.46;66.36;101299.94;5149509;27;20038;-76
2021/10/25 11:08:09;;;;;;;17.60;9.77;;;;;;;13.74;66.13;101307.59;5131494;27;20027;-77
2021/10/25 11:10:40;;;;;;;17.23;10.63;;;;;;;13.34;67.46;101300.41;5135211;27;20440;-77
2021/10/25 11:13:13;;;;;;;18.50;10.10;;;;;;;13.14;67.31;101286.47;5118599;27;20054;-76
2021/10/25 11:15:55;;;;;;;19.10;10.73;;;;;;;12.92;68.85;101298.66;5135607;27;20117;-77
2021/10/25 11:18:32;;;;;;;16.58;10.70;;;;;;;13.11;67.44;101276.94;5135755;27;20089;-76
2021/10/25 11:21:18;;;;;;;19.98;9.20;;;;;;;12.97;69.42;101317.75;5135599;27;20073;-77
2021/10/25 11:23:51;;;;;;;21.05;9.75;;;;;;;13.23;68.41;101312.31;5134944;27;20154;-76
2021/10/25 11:26:21;;;;;;;18.90;11.07;;;;;;;13.39;68.30;101328.44;5118630;27;20030;-76
2021/10/25 11:29:00;;;;;;;13.82;9.75;;;;;;;13.35;67.82;101323.56;5135579;27;20087;-77
2021/10/25 11:31:28;;;;;;;14.35;8.77;;;;;;;13.39;68.13;101322.22;5135387;27;20027;-76
2021/10/25 11:33:54;;;;;;;17.17;8.68;;;;;;;13.77;67.44;101331.44;5118029;27;20037;-76
2021/10/25 11:36:22;;;;;;;17.83;10.23;;;;;;;13.56;68.13;101317.72;5135404;27;20043;-76
2021/10/25 11:38:47;;;;;;;15.77;10.35;;;;;;;13.78;66.66;101310.81;5153655;27;20122;-77
2021/10/25 11:41:13;;;;;;;14.07;9.37;;;;;;;14.42;65.84;101326.91;5153730;27;20106;-77
2021/10/25 11:43:39;;;;;;;14.02;8.75;;;;;;;13.98;66.07;101289.78;5153350;27;20524;-77
2021/10/25 11:46:21;;;;;;;19.30;10.40;;;;;;;13.92;66.12;101278.72;5118267;27;20058;-77
2021/10/25 11:48:52;;;;;;;14.63;9.80;;;;;;;12.97;67.91;101254.31;5135370;27;20042;-78
2021/10/25 11:51:18;;;;;;;18.98;10.77;;;;;;;12.82;69.45;101288.09;5134926;27;20440;-78
2021/10/25 11:53:43;;;;;;;19.95;9.95;;;;;;;12.95;70.02;101309.91;5134834;27;20035;-77
2021/10/25 11:56:13;;;;;;;15.40;8.90;;;;;;;13.19;69.16;101289.50;5117274;27;20083;-77
2021/10/25 11:58:40;;;;;;;18.35;8.95;;;;;;;12.78;70.40;101303.69;5117766;27;20388;-77
2021/10/25 12:01:11;;;;;;;21.95;9.52;;;;;;;12.36;72.19;101299.16;5152857;27;20117;-76
2021/10/25 12:03:42;;;;;;;18.27;9.68;;;;;;;12.19;73.52;101314.28;5118421;27;20056;-77
2021/10/25 12:06:19;;;;;;;15.77;9.35;;;;;;;11.96;73.90;101307.81;5117530;27;20039;-76
2021/10/25 12:08:58;;;;;;;17.67;8.38;;;;;;;11.65;75.15;101308.22;5153116;27;20113;-76
2021/10/25 12:11:36;;;;;;;13.52;8.93;;;;;;;11.54;76.56;101325.38;5153084;27;20019;-76
2021/10/25 12:14:02;;;;;;;16.25;9.50;;;;;;;11.65;76.23;101318.94;5152927;27;20187;-76
2021/10/25 12:16:28;;;;;;;16.73;9.85;;;;;;;11.28;77.27;101303.91;5117645;27;20079;-77
2021/10/25 12:18:54;;;;;;;16.17;8.77;;;;;;;11.46;77.34;101329.81;5134680;27;20034;-77
2021/10/25 12:21:19;;;;;;;15.23;8.95;;;;;;;11.27;77.24;101302.25;5133974;27;20124;-76
2021/10/25 12:23:48;;;;;;;16.07;9.03;;;;;;;11.10;78.10;101297.75;5134503;27;20035;-77
2021/10/25 12:26:16;;;;;;;17.73;10.10;;;;;;;11.57;77.18;101332.25;5134585;27;20530;-78
2021/10/25 12:28:41;;;;;;;16.27;9.70;;;;;;;11.50;76.79;101304.44;5134520;27;20109;-77
2021/10/25 12:31:14;;;;;;;13.73;8.80;;;;;;;11.38;77.10;101298.50;5117084;27;20573;-77
2021/10/25 12:33:43;;;;;;;15.57;9.18;;;;;;;11.32;78.17;101310.63;5133304;27;20034;-77
2021/10/25 12:36:18;;;;;;;19.13;8.95;;;;;;;11.23;78.51;101308.88;5111330;27;20034;-78
2021/10/25 12:38:46;;;;;;;15.15;7.95;;;;;;;11.43;78.32;101311.41;5130735;27;20026;-78
2021/10/25 12:41:12;;;;;;;14.23;7.88;;;;;;;11.45;77.63;101307.59;5132390;27;20038;-77
2021/10/25 12:43:43;;;;;;;15.02;8.07;;;;;;;11.19;78.03;101294.13;5132450;27;20031;-78
2021/10/25 12:46:13;;;;;;;15.05;8.30;;;;;;;11.11;79.25;101307.44;5131259;27;20026;-78
2021/10/25 12:48:47;;;;;;;16.17;8.73;;;;;;;11.17;78.41;101301.50;5149360;27;20035;-78
2021/10/25 12:51:14;;;;;;;16.35;8.65;;;;;;;11.20;78.95;101318.06;5147683;27;20475;-78
2021/10/25 12:53:45;;;;;;;15.10;7.60;;;;;;;11.21;78.57;101308.19;5129238;27;20055;-78
2021/10/25 12:56:12;;;;;;;12.55;7.20;;;;;;;11.31;78.89;101325.00;5147677;27;20035;-77
2021/10/25 12:58:38;;;;;;;11.93;7.32;;;;;;;11.40;78.53;101315.22;5131581;27;20038;-78
2021/10/25 13:01:12;;;;;;;17.55;7.78;;;;;;;11.27;78.55;101302.25;5114253;27;20030;-76
2021/10/25 13:03:37;;;;;;;15.65;7.90;;;;;;;11.28;79.47;101314.59;5113099;27;20540;-77
2021/10/25 13:06:09;;;;;;;17.75;8.68;;;;;;;11.17;79.23;101290.81;5115418;27;20102;-77
2021/10/25 13:08:38;;;;;;;13.45;8.43;;;;;;;10.95;79.65;101268.03;5132908;27;20422;-77
2021/10/25 13:11:06;;;;;;;12.93;7.30;;;;;;;10.90;80.00;101283.69;5133465;27;20025;-77